Stanley, KS

11:11 AM CDT on September 30, 2016 (GMT -0500)
Blue Hills Country Club | | Change Station

Elev 955 ft 38.89 °N, 94.60 °W | Updated 22 hours ago

Clear
Clear
69 °F
Feels Like 69 °F
N
9
Wind Variable Wind from NNW
Gusts mph

Today
High -- | Low -- °F
--% Chance of Precip.
Yesterday
High -- | Low -- °F
Precip. -- in
Pressure 30.23 in
Visibility 10.0 miles
Clouds Clear
Dew Point 51 °F
Humidity 53%
Rainfall in
Snow Depth Not available.
7:14 AM 7:02 PM
Waning Crescent, 0% visible
METAR KOJC 301553Z 33005KT 10SM CLR 19/12 A3024 RMK AO2 SLP236 T01890117
Pressure 30.23 in
Visibility 10.0 miles
Clouds Clear
Dew Point 51 °F
Humidity 53%
Rainfall in
Snow Depth Not available.
7:14 AM 7:02 PM
Waning Crescent, 0% visible
METAR KOJC 301553Z 33005KT 10SM CLR 19/12 A3024 RMK AO2 SLP236 T01890117

10-Day Weather Forecast

Almanac

Astronomy

Sep. 30, 2016 Rise Set
Actual Time
Civil Twilight
Nautical Twilight
Astronomical Twilight
Moon
Length of Visible Light
Length of Day
Tomorrow will be .
, % of the Moon is Illuminated

Today's Extremes

State Highs State Lows

Community

WunderPhotos

Upload Photos

1,942,743 photos uploaded!

WunderBlog® & News

Nearby

Air Quality

  Air Quality AQ Index Pollutant
Not available.

Snow Depth

Station Depth Elevation

Earthquake Activity

City Distance Mag. Time & Date
Minimum magnitude displayed is 2.5.

Coastal Water Temperatures

Place Temperature

Stations

Nearby Weather Stations

Station Location Temp. Windchill Dew Point Humidity Wind Precip. Elev Updated Type
                   

Watches & Warnings

There are currently no watches in effect.